createdAt,value
2023-03-16T00:01:23.958Z,100301.75
2023-03-16T00:04:26.654Z,100300.25
2023-03-16T00:07:29.311Z,100311.13
2023-03-16T00:10:31.972Z,100309.47
2023-03-16T00:13:34.612Z,100329.41
2023-03-16T00:16:37.165Z,100319.38
2023-03-16T00:19:39.713Z,100328.44
2023-03-16T00:22:42.284Z,100330.69
2023-03-16T00:25:44.822Z,100338.56
2023-03-16T00:28:47.397Z,100337.28
2023-03-16T00:31:50.187Z,100335.16
2023-03-16T00:34:54.026Z,100335.44
2023-03-16T00:37:57.467Z,100339.00
2023-03-16T00:41:04.105Z,100340.47
2023-03-16T00:44:06.680Z,100343.56
2023-03-16T00:47:14.596Z,100337.22
2023-03-16T00:50:17.323Z,100340.84
2023-03-16T00:53:20.004Z,100344.47
2023-03-16T00:56:22.694Z,100353.44
2023-03-16T00:59:26.355Z,100346.94
2023-03-16T01:02:28.898Z,100347.06
2023-03-16T01:05:33.535Z,100353.06
2023-03-16T01:08:40.509Z,100353.22
2023-03-16T01:11:43.327Z,100355.84
2023-03-16T01:14:47.450Z,100354.28
2023-03-16T01:17:50.004Z,100356.31
2023-03-16T01:20:53.521Z,100355.59
2023-03-16T01:23:56.786Z,100359.03
2023-03-16T01:26:59.415Z,100353.72
2023-03-16T01:30:02.559Z,100357.75
2023-03-16T01:33:06.298Z,100354.81
2023-03-16T01:36:11.836Z,100350.00
2023-03-16T01:39:26.564Z,100352.84
2023-03-16T01:42:29.800Z,100341.38
2023-03-16T01:46:00.333Z,100345.84
2023-03-16T01:49:13.521Z,100344.84
2023-03-16T01:52:22.762Z,100355.47
2023-03-16T01:55:25.219Z,100355.69
2023-03-16T01:58:30.334Z,100365.69
2023-03-16T02:01:33.473Z,100367.56
2023-03-16T02:04:39.623Z,100366.31
2023-03-16T02:07:49.465Z,100375.22
2023-03-16T02:10:54.832Z,100371.88
2023-03-16T02:14:05.302Z,100373.81
2023-03-16T02:17:07.980Z,100385.78
2023-03-16T02:20:36.292Z,100380.69
2023-03-16T02:23:38.971Z,100393.78
2023-03-16T02:26:48.756Z,100393.41
2023-03-16T02:30:06.542Z,100397.56
2023-03-16T02:33:19.800Z,100394.00
2023-03-16T02:36:22.622Z,100405.38
2023-03-16T02:39:25.676Z,100411.75
2023-03-16T02:42:29.260Z,100414.25
2023-03-16T02:45:44.723Z,100411.16
2023-03-16T02:49:03.014Z,100428.28
2023-03-16T02:52:07.527Z,100428.25
2023-03-16T02:55:10.516Z,100427.69
2023-03-16T02:58:14.925Z,100431.25
2023-03-16T03:01:17.585Z,100429.03
2023-03-16T03:04:23.517Z,100442.56
2023-03-16T03:07:31.878Z,100439.03
2023-03-16T03:10:38.860Z,100441.94
2023-03-16T03:13:43.779Z,100455.91
2023-03-16T03:16:52.266Z,100458.91
2023-03-16T03:19:54.833Z,100458.78
2023-03-16T03:22:57.683Z,100470.16
2023-03-16T03:26:00.889Z,100464.16
2023-03-16T03:29:04.777Z,100474.94
2023-03-16T03:32:09.419Z,100468.38
2023-03-16T03:35:14.237Z,100481.19
2023-03-16T03:38:16.939Z,100486.84
2023-03-16T03:41:22.537Z,100481.38
2023-03-16T03:44:27.033Z,100482.94
2023-03-16T03:47:30.987Z,100485.25
2023-03-16T03:50:35.188Z,100492.78
2023-03-16T03:53:57.158Z,100496.50
2023-03-16T03:57:25.679Z,100503.16
2023-03-16T04:00:28.446Z,100506.22
2023-03-16T04:03:31.422Z,100510.00
2023-03-16T04:06:34.024Z,100511.44
2023-03-16T04:09:36.885Z,100515.63
2023-03-16T04:12:40.189Z,100508.63
2023-03-16T04:15:47.048Z,100506.84
2023-03-16T04:18:57.255Z,100515.34
2023-03-16T04:22:00.058Z,100524.56
2023-03-16T04:25:05.297Z,100532.28
2023-03-16T04:28:11.693Z,100528.56
2023-03-16T04:31:15.954Z,100539.06
2023-03-16T04:34:25.176Z,100540.63
2023-03-16T04:37:31.511Z,100536.34
2023-03-16T04:40:34.091Z,100534.94
2023-03-16T04:43:46.718Z,100543.25
2023-03-16T04:46:54.865Z,100543.25
2023-03-16T04:50:01.450Z,100553.16
2023-03-16T04:53:04.745Z,100554.56
2023-03-16T04:56:08.696Z,100553.97
2023-03-16T04:59:12.408Z,100553.53
2023-03-16T05:02:33.064Z,100566.97
2023-03-16T05:05:38.573Z,100567.81
2023-03-16T05:08:41.311Z,100573.31
2023-03-16T05:11:44.111Z,100575.94
2023-03-16T05:14:48.301Z,100585.56
2023-03-16T05:18:09.275Z,100579.75
2023-03-16T05:21:12.870Z,100579.69
2023-03-16T05:24:37.257Z,100586.97
2023-03-16T05:27:41.808Z,100590.28
2023-03-16T05:30:45.998Z,100586.72
2023-03-16T05:33:54.248Z,100590.41
2023-03-16T05:36:58.481Z,100601.81
2023-03-16T05:40:01.647Z,100595.94
2023-03-16T05:43:04.920Z,100596.53
2023-03-16T05:46:11.790Z,100595.06
2023-03-16T05:49:15.636Z,100597.91
2023-03-16T05:52:18.302Z,100602.72
2023-03-16T05:55:20.954Z,100603.19
2023-03-16T05:58:33.990Z,100618.03
2023-03-16T06:01:40.220Z,100618.66
2023-03-16T06:04:43.655Z,100621.81
2023-03-16T06:07:46.398Z,100628.78
2023-03-16T06:10:51.072Z,100627.06
2023-03-16T06:13:57.951Z,100620.88
2023-03-16T06:17:00.913Z,100631.19
2023-03-16T06:20:11.417Z,100640.44
2023-03-16T06:23:16.244Z,100643.50
2023-03-16T06:26:19.447Z,100643.91
2023-03-16T06:29:23.629Z,100637.53
2023-03-16T06:32:26.410Z,100653.84
2023-03-16T06:35:30.241Z,100654.53
2023-03-16T06:38:47.893Z,100651.06
2023-03-16T06:42:23.879Z,100658.63
2023-03-16T06:45:27.413Z,100664.63
2023-03-16T06:48:31.871Z,100660.09
2023-03-16T06:51:35.340Z,100669.81
2023-03-16T06:54:38.426Z,100672.66
2023-03-16T06:57:42.887Z,100672.78
2023-03-16T07:00:49.080Z,100676.03
2023-03-16T07:03:55.016Z,100684.50
2023-03-16T07:07:03.896Z,100674.94
2023-03-16T07:10:09.404Z,100695.84
2023-03-16T07:13:12.993Z,100697.06
2023-03-16T07:16:16.939Z,100699.28
2023-03-16T07:19:21.186Z,100698.63
2023-03-16T07:22:24.898Z,100695.88
2023-03-16T07:25:28.767Z,100705.31
2023-03-16T07:28:32.289Z,100699.38
2023-03-16T07:31:37.026Z,100705.88
2023-03-16T07:34:45.709Z,100709.19
2023-03-16T07:37:49.446Z,100718.03
2023-03-16T07:40:52.297Z,100715.66
2023-03-16T07:43:58.507Z,100719.03
2023-03-16T07:47:01.718Z,100724.19
2023-03-16T07:50:06.885Z,100730.97
2023-03-16T07:53:10.405Z,100724.88
2023-03-16T07:56:15.783Z,100734.53
2023-03-16T07:59:21.515Z,100727.88
2023-03-16T08:02:25.805Z,100734.50
2023-03-16T08:05:34.616Z,100734.19
2023-03-16T08:08:43.250Z,100726.22
2023-03-16T08:11:52.806Z,100728.91
2023-03-16T08:14:55.393Z,100744.00
2023-03-16T08:18:02.649Z,100744.19
2023-03-16T08:21:06.800Z,100748.97
2023-03-16T08:24:09.535Z,100746.81
2023-03-16T08:27:13.574Z,100755.66
2023-03-16T08:30:20.900Z,100757.16
2023-03-16T08:33:31.708Z,100747.88
2023-03-16T08:36:35.038Z,100752.34
2023-03-16T08:39:42.266Z,100748.50
2023-03-16T08:42:50.138Z,100760.25
2023-03-16T08:45:56.033Z,100757.44
2023-03-16T08:49:03.060Z,100752.97
2023-03-16T08:52:10.485Z,100749.13
2023-03-16T08:55:13.387Z,100748.31
2023-03-16T08:58:16.028Z,100760.91
2023-03-16T09:01:19.809Z,100760.41
2023-03-16T09:04:25.030Z,100758.25
2023-03-16T09:07:29.253Z,100762.22
2023-03-16T09:10:33.187Z,100760.56
2023-03-16T09:13:36.899Z,100768.72
2023-03-16T09:16:39.637Z,100781.75
2023-03-16T09:19:51.942Z,100767.31
2023-03-16T09:22:57.113Z,100769.78
2023-03-16T09:26:03.101Z,100774.69
2023-03-16T09:29:07.048Z,100767.84
2023-03-16T09:32:10.512Z,100775.44
2023-03-16T09:41:27.291Z,100768.63
2023-03-16T09:50:48.245Z,100771.47
2023-03-16T09:53:58.553Z,100767.84
2023-03-16T09:57:02.059Z,100778.59
2023-03-16T10:00:16.181Z,100784.41
2023-03-16T10:03:28.715Z,100766.50
2023-03-16T10:06:33.170Z,100779.44
2023-03-16T10:09:57.583Z,100778.41
2023-03-16T10:13:01.636Z,100784.41
2023-03-16T10:16:11.192Z,100784.34
2023-03-16T10:19:31.055Z,100793.09
2023-03-16T10:22:37.497Z,100796.00
2023-03-16T10:25:51.223Z,100783.81
2023-03-16T10:28:55.050Z,100784.97
2023-03-16T10:32:06.943Z,100793.09
2023-03-16T10:35:38.524Z,100798.97
2023-03-16T10:38:43.221Z,100796.16
2023-03-16T10:41:58.234Z,100793.97
2023-03-16T10:45:03.261Z,100784.75
2023-03-16T10:48:14.642Z,100776.88
2023-03-16T10:51:20.573Z,100795.38
2023-03-16T10:54:40.109Z,100790.84
2023-03-16T10:57:48.740Z,100790.88
2023-03-16T11:00:55.566Z,100792.72
2023-03-16T11:03:59.377Z,100783.34
2023-03-16T11:07:01.880Z,100777.81
2023-03-16T11:10:25.328Z,100766.72
2023-03-16T11:13:38.032Z,100768.53
2023-03-16T11:16:53.751Z,100768.00
2023-03-16T11:20:18.536Z,100776.38
2023-03-16T11:23:29.756Z,100773.69
2023-03-16T11:26:39.870Z,100757.59
2023-03-16T11:30:07.687Z,100769.66
2023-03-16T11:33:14.439Z,100759.72
2023-03-16T11:36:30.185Z,100761.91
2023-03-16T11:39:42.786Z,100764.59
2023-03-16T11:43:04.216Z,100751.53
2023-03-16T11:46:23.110Z,100747.16
2023-03-16T11:49:29.787Z,100774.00
2023-03-16T11:52:51.180Z,100759.75
2023-03-16T11:56:19.095Z,100756.00
2023-03-16T11:59:42.396Z,100748.00
2023-03-16T12:03:28.938Z,100746.19
2023-03-16T12:06:40.142Z,100754.19
2023-03-16T12:10:19.158Z,100748.59
2023-03-16T12:14:00.828Z,100748.13
2023-03-16T12:17:08.812Z,100743.94
2023-03-16T12:20:21.984Z,100743.44
2023-03-16T12:23:50.930Z,100743.91
2023-03-16T12:26:55.592Z,100739.03
2023-03-16T12:30:30.707Z,100742.75
2023-03-16T12:34:19.299Z,100732.13
2023-03-16T12:37:41.558Z,100727.16
2023-03-16T12:41:08.308Z,100730.19
2023-03-16T12:44:34.543Z,100734.38
2023-03-16T12:48:10.139Z,100733.94
2023-03-16T12:51:13.036Z,100725.41
2023-03-16T12:54:24.081Z,100743.47
2023-03-16T12:57:27.576Z,100734.84
2023-03-16T13:00:57.895Z,100731.06
2023-03-16T13:04:31.105Z,100729.28
2023-03-16T13:07:35.350Z,100745.31
2023-03-16T13:10:40.572Z,100738.50
2023-03-16T13:13:53.174Z,100728.78
2023-03-16T13:17:22.502Z,100729.38
2023-03-16T13:20:32.268Z,100738.09
2023-03-16T13:24:00.322Z,100729.03
2023-03-16T13:27:15.679Z,100725.03
2023-03-16T13:30:25.700Z,100729.88
2023-03-16T13:33:33.123Z,100728.66
2023-03-16T13:36:45.470Z,100738.41
2023-03-16T13:39:59.994Z,100729.34
2023-03-16T13:43:02.943Z,100740.13
2023-03-16T13:46:19.946Z,100724.66
2023-03-16T13:49:22.996Z,100728.28
2023-03-16T13:52:31.660Z,100719.63
2023-03-16T13:55:38.568Z,100725.53
2023-03-16T13:58:45.567Z,100730.75
2023-03-16T14:01:50.185Z,100727.94
2023-03-16T14:04:56.306Z,100723.75
2023-03-16T14:08:01.077Z,100732.41
2023-03-16T14:11:04.082Z,100732.66
2023-03-16T14:14:16.838Z,100733.19
2023-03-16T14:17:21.742Z,100727.44
2023-03-16T14:20:26.100Z,100725.00
2023-03-16T14:23:36.459Z,100737.19
2023-03-16T14:26:41.821Z,100733.41
2023-03-16T14:29:47.580Z,100729.59
2023-03-16T14:32:59.966Z,100732.72
2023-03-16T14:36:16.503Z,100739.25
2023-03-16T14:39:27.857Z,100745.75
2023-03-16T14:42:31.635Z,100737.66
2023-03-16T14:45:37.097Z,100743.06
2023-03-16T14:48:41.256Z,100750.19
2023-03-16T14:51:45.942Z,100751.66
2023-03-16T14:54:49.033Z,100746.72
2023-03-16T14:57:51.866Z,100754.88
2023-03-16T15:00:55.308Z,100756.97
2023-03-16T15:03:59.236Z,100753.66
2023-03-16T15:07:07.168Z,100756.78
2023-03-16T15:10:20.364Z,100761.06
2023-03-16T15:13:41.912Z,100756.38
2023-03-16T15:16:44.468Z,100750.09
2023-03-16T15:19:47.065Z,100760.72
2023-03-16T15:22:51.156Z,100763.69
2023-03-16T15:25:58.511Z,100765.06
2023-03-16T15:29:01.228Z,100764.00
2023-03-16T15:32:04.054Z,100764.56
2023-03-16T15:35:07.454Z,100766.53
2023-03-16T15:38:24.566Z,100774.41
2023-03-16T15:41:32.434Z,100789.34
2023-03-16T15:44:41.004Z,100774.13
2023-03-16T15:47:44.052Z,100782.28
2023-03-16T15:50:56.150Z,100789.81
2023-03-16T15:54:01.951Z,100790.66
2023-03-16T15:57:05.835Z,100800.69
2023-03-16T16:00:38.323Z,100799.47
2023-03-16T16:03:41.365Z,100797.31
2023-03-16T16:06:44.071Z,100802.19
2023-03-16T16:09:57.032Z,100810.91
2023-03-16T16:13:01.153Z,100812.31
2023-03-16T16:16:03.881Z,100822.03
2023-03-16T16:19:06.561Z,100821.50
2023-03-16T16:22:13.166Z,100822.53
2023-03-16T16:25:16.471Z,100828.28
2023-03-16T16:28:22.319Z,100819.59
2023-03-16T16:31:26.380Z,100828.78
2023-03-16T16:34:28.983Z,100836.50
2023-03-16T16:37:31.471Z,100846.28
2023-03-16T16:40:38.088Z,100849.69
2023-03-16T16:43:44.137Z,100849.47
2023-03-16T16:46:49.403Z,100854.31
2023-03-16T16:49:52.819Z,100853.59
2023-03-16T16:52:57.446Z,100862.19
2023-03-16T16:56:00.236Z,100859.13
2023-03-16T16:59:18.470Z,100868.03
2023-03-16T17:02:33.174Z,100872.72
2023-03-16T17:05:36.104Z,100885.13
2023-03-16T17:08:39.124Z,100883.03
2023-03-16T17:11:43.828Z,100889.91
2023-03-16T17:14:46.504Z,100889.34
2023-03-16T17:17:50.199Z,100891.00
2023-03-16T17:20:52.830Z,100899.22
2023-03-16T17:23:56.996Z,100897.25
2023-03-16T17:27:01.519Z,100899.44
2023-03-16T17:30:11.108Z,100904.03
2023-03-16T17:33:16.767Z,100901.06
2023-03-16T17:36:21.634Z,100900.38
2023-03-16T17:39:29.712Z,100899.72
2023-03-16T17:42:33.137Z,100904.97
2023-03-16T17:45:37.657Z,100912.09
2023-03-16T17:48:40.464Z,100914.47
2023-03-16T17:51:44.331Z,100921.03
2023-03-16T17:54:48.908Z,100915.47
2023-03-16T17:57:54.325Z,100920.06
2023-03-16T18:00:58.507Z,100926.31
2023-03-16T18:04:02.158Z,100925.50
2023-03-16T18:07:05.418Z,100934.47
2023-03-16T18:10:15.173Z,100935.72
2023-03-16T18:13:31.763Z,100935.00
2023-03-16T18:16:34.822Z,100941.28
2023-03-16T18:19:37.967Z,100943.69
2023-03-16T18:22:41.394Z,100940.28
2023-03-16T18:25:45.022Z,100943.00
2023-03-16T18:28:48.502Z,100946.00
2023-03-16T18:31:54.009Z,100946.22
2023-03-16T18:34:58.125Z,100960.03
2023-03-16T18:38:01.595Z,100960.47
2023-03-16T18:41:17.534Z,100972.06
2023-03-16T18:44:23.518Z,100979.94
2023-03-16T18:47:31.752Z,100972.19
2023-03-16T18:50:34.719Z,100979.28
2023-03-16T18:53:38.171Z,100988.91
2023-03-16T18:56:41.768Z,100993.50
2023-03-16T18:59:45.416Z,101000.34
2023-03-16T19:02:58.945Z,101002.03
2023-03-16T19:06:02.263Z,101012.72
2023-03-16T19:09:13.989Z,101020.66
2023-03-16T19:12:24.623Z,101018.44
2023-03-16T19:15:30.999Z,101025.13
2023-03-16T19:18:42.320Z,101032.34
2023-03-16T19:21:46.025Z,101040.69
2023-03-16T19:24:52.609Z,101048.47
2023-03-16T19:27:56.134Z,101045.97
2023-03-16T19:30:59.705Z,101056.53
2023-03-16T19:34:02.712Z,101062.09
2023-03-16T19:37:06.708Z,101064.88
2023-03-16T19:40:12.440Z,101070.41
2023-03-16T19:43:20.590Z,101070.97
2023-03-16T19:46:28.298Z,101075.25
2023-03-16T19:49:31.389Z,101086.91
2023-03-16T19:52:34.162Z,101087.75
2023-03-16T19:55:38.264Z,101090.09
2023-03-16T19:58:43.323Z,101095.94
2023-03-16T20:01:47.524Z,101097.41
2023-03-16T20:04:50.460Z,101098.69
2023-03-16T20:07:55.445Z,101098.25
2023-03-16T20:11:06.611Z,101106.13
2023-03-16T20:14:19.708Z,101104.16
2023-03-16T20:17:28.404Z,101108.44
2023-03-16T20:20:37.581Z,101107.59
2023-03-16T20:23:40.547Z,101120.06
2023-03-16T20:26:45.128Z,101108.38
2023-03-16T20:29:51.027Z,101113.22
2023-03-16T20:32:53.918Z,101116.13
2023-03-16T20:35:57.164Z,101129.94
2023-03-16T20:38:59.837Z,101125.19
2023-03-16T20:42:02.778Z,101121.59
2023-03-16T20:45:24.861Z,101126.72
2023-03-16T20:48:28.528Z,101132.13
2023-03-16T20:51:32.801Z,101132.41
2023-03-16T20:54:35.949Z,101134.13
2023-03-16T20:57:40.260Z,101126.31
2023-03-16T21:00:44.409Z,101135.91
2023-03-16T21:03:54.472Z,101130.00
2023-03-16T21:06:57.746Z,101134.09
2023-03-16T21:10:00.588Z,101145.38
2023-03-16T21:13:04.221Z,101141.56
2023-03-16T21:16:11.707Z,101153.81
2023-03-16T21:19:21.120Z,101153.34
2023-03-16T21:22:29.241Z,101153.59
2023-03-16T21:25:44.866Z,101160.31
2023-03-16T21:28:55.809Z,101166.78
2023-03-16T21:31:58.984Z,101160.22
2023-03-16T21:35:01.627Z,101166.09
2023-03-16T21:38:13.974Z,101165.97
2023-03-16T21:41:17.808Z,101169.34
2023-03-16T21:44:20.786Z,101163.09
2023-03-16T21:47:26.378Z,101169.34
2023-03-16T21:50:36.859Z,101161.69
2023-03-16T21:53:39.578Z,101164.91
2023-03-16T21:56:42.446Z,101168.72
2023-03-16T21:59:45.162Z,101161.22
2023-03-16T22:02:49.958Z,101167.66
2023-03-16T22:05:53.467Z,101169.44
2023-03-16T22:08:59.740Z,101168.03
2023-03-16T22:12:02.479Z,101171.56
2023-03-16T22:15:05.608Z,101170.88
2023-03-16T22:18:20.857Z,101160.13
2023-03-16T22:21:35.115Z,101166.91
2023-03-16T22:24:38.061Z,101171.56
2023-03-16T22:27:41.422Z,101170.63
2023-03-16T22:30:44.891Z,101172.16
2023-03-16T22:33:50.313Z,101167.47
2023-03-16T22:36:53.510Z,101173.47
2023-03-16T22:39:58.505Z,101168.31
2023-03-16T22:43:04.529Z,101168.72
2023-03-16T22:46:11.608Z,101170.72
2023-03-16T22:49:24.722Z,101172.34
2023-03-16T22:52:30.955Z,101175.84
2023-03-16T22:55:38.308Z,101179.19
2023-03-16T22:58:51.264Z,101183.56
2023-03-16T23:01:53.928Z,101179.03
2023-03-16T23:04:57.670Z,101183.56
2023-03-16T23:08:02.596Z,101175.91
2023-03-16T23:11:05.438Z,101174.72
2023-03-16T23:14:17.548Z,101181.41
2023-03-16T23:17:22.435Z,101193.22
2023-03-16T23:20:28.972Z,101197.22
2023-03-16T23:23:32.363Z,101195.44
2023-03-16T23:26:34.806Z,101203.78
2023-03-16T23:29:37.658Z,101198.03
2023-03-16T23:32:41.453Z,101202.19
2023-03-16T23:35:46.697Z,101206.97
2023-03-16T23:38:50.561Z,101201.38
2023-03-16T23:41:53.199Z,101208.97
2023-03-16T23:44:56.410Z,101205.63
2023-03-16T23:48:01.893Z,101204.41
2023-03-16T23:51:05.777Z,101207.16
2023-03-16T23:54:24.948Z,101210.91
2023-03-16T23:57:27.695Z,101216.91
